KMVL/MVL METAR and TAF weather

Enter ICAO airport designator
Station Type Date Time Source
KMVL METAR 2022/08/16 18:54 UTC NOAA

KMVL 161854Z AUTO 33006KT 10SM CLR 28/11 A3009 RMK AO2 LTG DSNT NW SLP189 T02780106


Station Type Date Time Source
KMVL Decoded METAR 2022/08/16 18:54 UTC NOAA

MORRISVILLE STOWE STATE AIRPORT , VT, United States (KMVL) 44-32N 72-37W 223M
Aug 16, 2022 - 02:54 PM EDT / 2022.08.16 1854 UTC
Wind: from the NNW (330 degrees) at 7 MPH (6 KT):0
Visibility: 10 mile(s):0
Sky conditions: clear
Weather: Lightning observed
Temperature: 82.0 F (27.8 C)
Dew Point: 51.1 F (10.6 C)
Relative Humidity: 34%
Pressure (altimeter): 30.09 in. Hg (1018 hPa)
ob: KMVL 161854Z AUTO 33006KT 10SM CLR 28/11 A3009 RMK AO2 LTG DSNT NW SLP189 T02780106
cycle: 19

Station Type Date Time Source
KMVL TAF UTC NOAA

Error!

Example: see airport list